createdAt,value
2018-04-24T00:04:27.634Z,10.40
2018-04-24T00:09:00.866Z,11.10
2018-04-24T00:13:34.126Z,9.23
2018-04-24T00:18:07.315Z,8.00
2018-04-24T00:22:40.503Z,11.27
2018-04-24T00:27:13.681Z,8.33
2018-04-24T00:31:46.848Z,8.13
2018-04-24T00:36:20.041Z,10.40
2018-04-24T00:40:53.234Z,9.83
2018-04-24T00:45:26.418Z,11.97
2018-04-24T00:49:59.612Z,9.43
2018-04-24T00:54:32.825Z,8.80
2018-04-24T00:59:06.042Z,10.57
2018-04-24T01:03:39.234Z,10.50
2018-04-24T01:08:12.421Z,10.33
2018-04-24T01:12:45.606Z,9.17
2018-04-24T01:17:18.790Z,9.57
2018-04-24T01:21:52.474Z,9.17
2018-04-24T01:26:25.628Z,12.27
2018-04-24T01:30:58.814Z,9.47
2018-04-24T01:35:32.022Z,9.43
2018-04-24T01:40:05.203Z,8.53
2018-04-24T01:44:38.394Z,12.47
2018-04-24T01:49:11.593Z,14.80
2018-04-24T01:53:44.745Z,13.70
2018-04-24T01:58:17.934Z,9.40
2018-04-24T02:02:51.095Z,10.27
2018-04-24T02:07:25.100Z,13.60
2018-04-24T02:11:58.246Z,12.27
2018-04-24T02:16:31.431Z,10.33
2018-04-24T02:21:05.380Z,10.90
2018-04-24T02:25:38.574Z,13.50
2018-04-24T02:30:12.531Z,12.97
2018-04-24T02:34:45.725Z,13.27
2018-04-24T02:39:18.940Z,11.17
2018-04-24T02:43:52.139Z,10.93
2018-04-24T02:48:25.349Z,10.10
2018-04-24T02:52:58.542Z,10.53
2018-04-24T02:57:31.702Z,11.90
2018-04-24T03:02:06.411Z,11.80
2018-04-24T03:06:40.441Z,16.07
2018-04-24T03:11:13.632Z,13.93
2018-04-24T03:15:46.823Z,14.17
2018-04-24T03:20:20.010Z,11.80
2018-04-24T03:24:55.189Z,12.53
2018-04-24T03:29:29.309Z,15.33
2018-04-24T03:34:02.667Z,15.03
2018-04-24T03:38:35.850Z,11.47
2018-04-24T03:43:09.048Z,12.43
2018-04-24T03:47:42.231Z,13.33
2018-04-24T03:52:16.254Z,11.40
2018-04-24T03:56:50.264Z,12.07
2018-04-24T04:01:23.445Z,11.70
2018-04-24T04:05:56.626Z,12.80
2018-04-24T04:10:29.818Z,13.93
2018-04-24T04:15:03.064Z,11.80
2018-04-24T04:19:48.126Z,11.87
2018-04-24T04:24:34.008Z,13.40
2018-04-24T04:29:07.241Z,13.87
2018-04-24T04:33:40.467Z,16.57
2018-04-24T04:38:13.660Z,15.53
2018-04-24T04:42:46.846Z,13.53
2018-04-24T04:47:20.117Z,14.30
2018-04-24T04:51:54.078Z,16.57
2018-04-24T04:56:27.293Z,13.27
2018-04-24T05:01:00.555Z,14.27
2018-04-24T05:05:33.754Z,16.07
2018-04-24T05:10:06.946Z,15.63
2018-04-24T05:14:40.296Z,12.33
2018-04-24T05:19:14.303Z,17.57
2018-04-24T05:23:48.235Z,16.20
2018-04-24T05:28:22.190Z,20.97
2018-04-24T05:32:55.391Z,16.00
2018-04-24T05:37:28.673Z,15.93
2018-04-24T05:42:02.634Z,18.40
2018-04-24T05:46:35.825Z,13.77
2018-04-24T05:51:09.034Z,13.93
2018-04-24T05:55:42.218Z,19.90
2018-04-24T06:00:16.232Z,19.87
2018-04-24T06:04:49.422Z,22.10
2018-04-24T06:09:22.622Z,23.17
2018-04-24T06:13:55.782Z,23.97
2018-04-24T06:18:28.982Z,14.97
2018-04-24T06:23:02.191Z,17.63
2018-04-24T06:27:35.353Z,18.90
2018-04-24T06:32:08.547Z,15.57
2018-04-24T06:36:41.799Z,13.80
2018-04-24T06:41:15.834Z,14.10
2018-04-24T06:45:49.019Z,13.93
2018-04-24T06:50:22.982Z,13.00
2018-04-24T06:54:56.260Z,13.67
2018-04-24T06:59:29.394Z,10.73
2018-04-24T07:04:02.590Z,18.50
2018-04-24T07:08:35.795Z,13.33
2018-04-24T07:13:08.955Z,8.68
2018-04-24T07:17:42.959Z,12.20
2018-04-24T07:22:16.248Z,11.77
2018-04-24T07:26:49.388Z,11.48
2018-04-24T07:31:22.605Z,12.55
2018-04-24T07:35:55.811Z,14.40
2018-04-24T07:40:29.011Z,9.15
2018-04-24T07:45:02.170Z,9.77
2018-04-24T07:49:35.362Z,8.63
2018-04-24T07:54:09.646Z,9.38
2018-04-24T07:58:42.835Z,9.18
2018-04-24T08:03:16.021Z,9.52
2018-04-24T08:07:49.300Z,11.15
2018-04-24T08:12:23.223Z,7.72
2018-04-24T08:16:57.174Z,7.90
2018-04-24T08:21:30.415Z,12.55
2018-04-24T08:26:03.597Z,7.93
2018-04-24T08:30:36.799Z,7.43
2018-04-24T08:35:10.114Z,10.75
2018-04-24T08:39:43.281Z,11.00
2018-04-24T08:44:17.234Z,10.50
2018-04-24T08:48:50.421Z,13.10
2018-04-24T08:53:24.375Z,9.45
2018-04-24T08:57:57.563Z,6.43
2018-04-24T09:02:30.747Z,6.90
2018-04-24T09:07:03.938Z,7.28
2018-04-24T09:11:37.890Z,8.40
2018-04-24T09:16:12.682Z,8.82
2018-04-24T09:20:45.842Z,7.37
2018-04-24T09:25:19.047Z,7.80
2018-04-24T09:29:58.014Z,7.80
2018-04-24T09:34:31.400Z,6.57
2018-04-24T09:39:07.351Z,8.10
2018-04-24T09:43:40.497Z,6.20
2018-04-24T09:48:13.707Z,6.43
2018-04-24T09:52:46.899Z,6.12
2018-04-24T09:57:20.089Z,5.87
2018-04-24T10:01:54.090Z,5.95
2018-04-24T10:06:27.282Z,5.20
2018-04-24T10:11:00.470Z,7.00
2018-04-24T10:15:33.638Z,5.68
2018-04-24T10:20:07.596Z,4.40
2018-04-24T10:24:40.782Z,5.22
2018-04-24T10:29:13.966Z,4.75
2018-04-24T10:33:47.937Z,6.43
2018-04-24T10:38:21.404Z,5.10
2018-04-24T10:42:54.611Z,6.62
2018-04-24T10:47:28.554Z,7.37
2018-04-24T10:52:02.970Z,4.40
2018-04-24T10:56:36.217Z,6.97
2018-04-24T11:01:09.420Z,4.12
2018-04-24T11:05:42.610Z,6.22
2018-04-24T11:10:15.903Z,4.78
2018-04-24T11:14:49.950Z,8.70
2018-04-24T11:19:23.146Z,5.65
2018-04-24T11:23:56.459Z,4.72
2018-04-24T11:28:29.701Z,5.18
2018-04-24T11:33:03.435Z,6.50
2018-04-24T11:37:36.627Z,5.30
2018-04-24T11:42:09.882Z,4.50
2018-04-24T11:46:44.336Z,6.78
2018-04-24T11:51:18.875Z,5.10
2018-04-24T11:55:52.078Z,6.20
2018-04-24T12:00:26.028Z,3.95
2018-04-24T12:04:59.229Z,5.53
2018-04-24T12:09:32.394Z,5.40
2018-04-24T12:14:06.364Z,4.28
2018-04-24T12:18:39.523Z,5.93
2018-04-24T12:23:12.718Z,5.45
2018-04-24T12:27:45.883Z,4.80
2018-04-24T12:32:19.082Z,6.07
2018-04-24T12:36:52.263Z,4.90
2018-04-24T12:41:26.215Z,5.00
2018-04-24T12:45:59.402Z,3.28
2018-04-24T12:50:32.600Z,6.80
2018-04-24T12:55:06.523Z,6.78
2018-04-24T12:59:40.942Z,4.75
2018-04-24T13:04:14.129Z,3.87
2018-04-24T13:08:47.321Z,4.30
2018-04-24T13:13:20.518Z,3.03
2018-04-24T13:17:53.886Z,4.30
2018-04-24T13:22:27.108Z,4.25
2018-04-24T13:27:00.296Z,3.87
2018-04-24T13:31:34.246Z,6.22
2018-04-24T13:36:07.529Z,4.62
2018-04-24T13:40:40.791Z,6.15
2018-04-24T13:45:13.975Z,6.15
2018-04-24T13:49:47.164Z,6.35
2018-04-24T13:54:20.861Z,3.70
2018-04-24T13:58:54.112Z,5.55
2018-04-24T14:03:27.272Z,3.42
2018-04-24T14:08:01.390Z,4.15
2018-04-24T14:12:35.353Z,4.93
2018-04-24T14:17:08.511Z,9.15
2018-04-24T14:21:41.704Z,4.68
2018-04-24T14:26:14.953Z,4.53
2018-04-24T14:30:48.914Z,3.22
2018-04-24T14:35:22.388Z,4.43
2018-04-24T14:39:56.413Z,3.75
2018-04-24T14:44:31.052Z,4.93
2018-04-24T14:49:04.362Z,3.70
2018-04-24T14:53:38.321Z,5.18
2018-04-24T14:58:11.513Z,6.53
2018-04-24T15:02:44.703Z,4.30
2018-04-24T15:07:18.663Z,4.55
2018-04-24T15:11:52.008Z,4.12
2018-04-24T15:16:25.663Z,6.57
2018-04-24T15:20:59.057Z,6.45
2018-04-24T15:25:33.236Z,5.28
2018-04-24T15:30:06.569Z,4.05
2018-04-24T15:34:39.787Z,5.85
2018-04-24T15:39:14.470Z,5.30
2018-04-24T15:43:48.839Z,7.30
2018-04-24T15:48:22.033Z,8.18
2018-04-24T15:52:55.213Z,3.87
2018-04-24T15:57:28.402Z,4.53
2018-04-24T16:02:03.045Z,3.30
2018-04-24T16:06:37.372Z,6.40
2018-04-24T16:11:10.613Z,5.50
2018-04-24T16:15:43.769Z,4.40
2018-04-24T16:20:18.461Z,3.65
2018-04-24T16:24:51.679Z,4.22
2018-04-24T16:29:24.865Z,9.23
2018-04-24T16:33:58.104Z,3.75
2018-04-24T16:38:31.533Z,5.68
2018-04-24T16:43:06.577Z,8.20
2018-04-24T16:47:39.737Z,5.78
2018-04-24T16:52:12.930Z,5.57
2018-04-24T16:56:46.882Z,4.57
2018-04-24T17:01:20.070Z,4.07
2018-04-24T17:05:54.053Z,3.37
2018-04-24T17:10:27.233Z,7.00
2018-04-24T17:15:00.941Z,6.72
2018-04-24T17:19:34.126Z,4.60
2018-04-24T17:24:07.318Z,4.30
2018-04-24T17:28:41.282Z,3.70
2018-04-24T17:33:14.483Z,5.55
2018-04-24T17:37:47.648Z,5.37
2018-04-24T17:42:20.847Z,4.47
2018-04-24T17:46:54.025Z,6.93
2018-04-24T17:51:27.347Z,8.07
2018-04-24T17:56:00.543Z,6.60
2018-04-24T18:00:33.913Z,5.45
2018-04-24T18:05:07.100Z,6.12
2018-04-24T18:09:41.839Z,7.15
2018-04-24T18:14:15.002Z,4.47
2018-04-24T18:18:48.190Z,4.87
2018-04-24T18:23:21.367Z,4.97
2018-04-24T18:27:55.319Z,5.57
2018-04-24T18:32:28.530Z,3.87
2018-04-24T18:37:01.688Z,8.57
2018-04-24T18:41:35.634Z,12.07
2018-04-24T18:46:08.802Z,9.32
2018-04-24T18:50:41.998Z,7.35
2018-04-24T18:55:15.198Z,3.60
2018-04-24T18:59:48.390Z,4.60
2018-04-24T19:04:21.551Z,3.80
2018-04-24T19:08:56.186Z,5.82
2018-04-24T19:13:29.387Z,7.75
2018-04-24T19:18:02.597Z,4.78
2018-04-24T19:22:35.785Z,3.83
2018-04-24T19:27:08.946Z,6.57
2018-04-24T19:31:47.818Z,6.15
2018-04-24T19:36:20.986Z,10.15
2018-04-24T19:40:59.799Z,8.60
2018-04-24T19:45:33.741Z,6.25
2018-04-24T19:50:12.600Z,6.82
2018-04-24T19:54:51.450Z,7.03
2018-04-24T19:59:24.639Z,7.80
2018-04-24T20:03:57.877Z,6.18
2018-04-24T20:08:31.390Z,5.90
2018-04-24T20:13:04.570Z,7.15
2018-04-24T20:17:38.020Z,7.47
2018-04-24T20:22:12.005Z,5.40
2018-04-24T20:26:45.206Z,5.80
2018-04-24T20:31:18.411Z,6.40
2018-04-24T20:35:51.590Z,7.40
2018-04-24T20:40:25.729Z,6.87
2018-04-24T20:44:58.956Z,5.50
2018-04-24T20:49:32.195Z,12.00
2018-04-24T20:54:05.354Z,13.87
2018-04-24T20:58:39.334Z,88.73
2018-04-24T21:03:13.393Z,240.83
2018-04-24T21:07:47.389Z,139.43
2018-04-24T21:12:20.585Z,43.83
2018-04-24T21:16:53.782Z,32.07
2018-04-24T21:21:26.994Z,214.10
2018-04-24T21:26:00.688Z,753.63
2018-04-24T21:30:33.890Z,345.43
2018-04-24T21:35:07.191Z,798.40
2018-04-24T21:39:40.596Z,493.50
2018-04-24T21:44:13.887Z,278.27
2018-04-24T21:48:47.914Z,369.93
2018-04-24T21:53:21.877Z,260.20
2018-04-24T21:57:55.074Z,379.63
2018-04-24T22:02:28.352Z,166.73
2018-04-24T22:07:03.066Z,275.33
2018-04-24T22:11:36.258Z,373.63
2018-04-24T22:16:09.471Z,326.57
2018-04-24T22:20:42.638Z,570.13
2018-04-24T22:25:15.872Z,94.50
2018-04-24T22:29:49.099Z,504.80
2018-04-24T22:34:22.299Z,515.93
2018-04-24T22:38:55.494Z,227.03
2018-04-24T22:43:28.692Z,264.37
2018-04-24T22:48:01.891Z,353.50
2018-04-24T22:52:35.098Z,309.97
2018-04-24T22:57:08.270Z,335.03
2018-04-24T23:01:42.234Z,148.97
2018-04-24T23:06:15.430Z,21.27
2018-04-24T23:11:00.572Z,13.90
2018-04-24T23:15:45.649Z,8.97
2018-04-24T23:20:18.342Z,7.83
2018-04-24T23:24:51.556Z,12.73
2018-04-24T23:29:24.746Z,8.33
2018-04-24T23:33:57.978Z,12.80
2018-04-24T23:38:31.213Z,9.63
2018-04-24T23:43:04.406Z,8.17
2018-04-24T23:47:38.424Z,11.40
2018-04-24T23:52:12.366Z,9.00
2018-04-24T23:56:46.334Z,11.43
